Time;durP1;ratioP1;P1;durP2;ratioP2;P2;SDS_P1;SDS_P2;PMS_P1;PMS_P2;Temp;Humidity;BMP_temperature;BMP_pressure;BME280_temperature;BME280_humidity;BME280_pressure;Samples;Min_cycle;Max_cycle;Signal;HPM_P1;HPM_P2
2022/12/01 00:00:00;;;;;;;30.53;17.67;;;5.30;99.90;;;;;;5054557;28;20433;-60
2022/12/01 00:02:34;;;;;;;26.90;17.97;;;5.30;99.90;;;;;;5055435;28;20462;-60
2022/12/01 00:05:05;;;;;;;28.43;17.50;;;5.30;99.90;;;;;;5055931;28;20433;-60
2022/12/01 00:07:32;;;;;;;27.97;17.90;;;5.40;99.90;;;;;;5056368;28;20461;-59
2022/12/01 00:12:46;;;;;;;26.73;17.63;;;5.40;99.90;;;;;;5055842;28;20432;-60
2022/12/01 00:15:17;;;;;;;30.17;18.80;;;5.40;99.90;;;;;;5058866;28;20462;-60
2022/12/01 00:17:47;;;;;;;33.00;18.83;;;5.40;99.90;;;;;;5060461;28;20437;-60
2022/12/01 00:20:16;;;;;;;26.30;17.40;;;5.50;99.90;;;;;;5059052;28;20450;-60
2022/12/01 00:22:43;;;;;;;23.30;16.13;;;5.50;99.90;;;;;;5059577;28;20463;-60
2022/12/01 00:25:17;;;;;;;22.07;16.73;;;5.40;99.90;;;;;;5058315;28;20462;-60
2022/12/01 00:27:50;;;;;;;21.50;15.83;;;5.40;99.90;;;;;;5059281;28;20879;-60
2022/12/01 00:30:18;;;;;;;27.30;17.43;;;5.40;99.90;;;;;;5059021;28;20486;-60
2022/12/01 00:32:50;;;;;;;28.63;16.20;;;5.30;99.90;;;;;;5059092;28;20441;-60
2022/12/01 00:35:20;;;;;;;24.13;16.60;;;5.30;99.90;;;;;;5059626;28;20443;-60
2022/12/01 00:37:52;;;;;;;23.47;16.53;;;5.30;99.90;;;;;;5059203;28;20440;-60
2022/12/01 00:40:20;;;;;;;24.57;16.80;;;5.30;99.90;;;;;;5059491;28;20962;-60
2022/12/01 00:42:55;;;;;;;36.50;18.00;;;5.30;99.90;;;;;;5058887;28;20474;-59
2022/12/01 00:45:26;;;;;;;26.20;17.93;;;5.20;99.90;;;;;;5059849;28;20477;-60
2022/12/01 00:47:55;;;;;;;35.63;19.73;;;5.30;99.90;;;;;;5058662;28;20447;-60
2022/12/01 00:50:29;;;;;;;29.50;18.40;;;5.40;99.90;;;;;;5058537;28;20486;-60
2022/12/01 00:52:59;;;;;;;38.63;18.67;;;5.40;99.90;;;;;;5058246;28;20470;-60
2022/12/01 00:55:26;;;;;;;31.27;19.30;;;5.30;99.90;;;;;;5058937;28;20511;-60
2022/12/01 00:57:53;;;;;;;34.90;19.57;;;5.30;99.90;;;;;;5058897;28;20447;-60
2022/12/01 01:00:24;;;;;;;34.43;19.80;;;5.30;99.90;;;;;;5057889;28;20437;-60
2022/12/01 01:02:52;;;;;;;37.53;18.97;;;5.30;99.90;;;;;;5058843;28;20866;-60
2022/12/01 01:05:26;;;;;;;33.30;20.30;;;5.30;99.90;;;;;;5059461;28;20462;-60
2022/12/01 01:07:55;;;;;;;29.83;18.87;;;5.40;99.90;;;;;;5057873;28;20544;-60
2022/12/01 01:10:24;;;;;;;36.53;18.97;;;5.40;99.90;;;;;;5058992;28;20585;-60
2022/12/01 01:12:56;;;;;;;36.13;20.50;;;5.40;99.90;;;;;;5058468;28;20513;-60
2022/12/01 01:15:23;;;;;;;32.23;20.43;;;5.30;99.90;;;;;;5058828;28;20560;-60
2022/12/01 01:17:51;;;;;;;35.17;20.47;;;5.30;99.90;;;;;;5058441;28;20472;-60
2022/12/01 01:20:25;;;;;;;33.13;20.00;;;5.30;99.90;;;;;;5058576;28;20455;-60
2022/12/01 01:22:56;;;;;;;30.23;19.87;;;5.30;99.90;;;;;;5057498;28;20465;-60
2022/12/01 01:25:23;;;;;;;36.33;19.67;;;5.30;99.90;;;;;;5058582;28;20476;-60
2022/12/01 01:27:51;;;;;;;38.13;21.83;;;5.30;99.90;;;;;;5058558;28;20469;-60
2022/12/01 01:30:21;;;;;;;35.80;21.73;;;5.30;99.90;;;;;;5058291;28;20471;-60
2022/12/01 01:32:51;;;;;;;35.40;21.83;;;5.30;99.90;;;;;;5058252;28;20429;-60
2022/12/01 01:35:20;;;;;;;44.90;21.00;;;5.30;99.90;;;;;;5058651;28;20560;-60
2022/12/01 01:37:50;;;;;;;36.50;22.40;;;5.30;99.90;;;;;;5057624;28;20462;-60
2022/12/01 01:40:20;;;;;;;34.97;21.40;;;5.30;99.90;;;;;;5058635;28;20461;-60
2022/12/01 01:42:47;;;;;;;51.40;22.83;;;5.30;99.90;;;;;;5057936;28;20501;-60
2022/12/01 01:45:25;;;;;;;46.13;24.23;;;5.30;99.90;;;;;;5057398;28;20476;-60
2022/12/01 01:48:00;;;;;;;39.10;21.77;;;5.30;99.90;;;;;;5057946;28;20516;-60
2022/12/01 01:50:30;;;;;;;43.00;22.13;;;5.30;99.90;;;;;;5058467;28;20942;-60
2022/12/01 01:53:02;;;;;;;34.93;21.83;;;5.30;99.90;;;;;;5058528;28;20516;-60
2022/12/01 01:55:37;;;;;;;44.43;24.17;;;5.30;99.90;;;;;;5057835;28;20501;-58
2022/12/01 01:58:11;;;;;;;34.73;21.77;;;5.40;99.90;;;;;;5057038;28;20470;-60
2022/12/01 02:00:40;;;;;;;43.73;22.80;;;5.30;99.90;;;;;;5057900;28;20522;-60
2022/12/01 02:03:15;;;;;;;41.00;23.53;;;5.30;99.90;;;;;;5057945;28;20560;-60
2022/12/01 02:05:49;;;;;;;45.77;26.07;;;5.30;99.90;;;;;;5057481;28;20903;-60
2022/12/01 02:08:21;;;;;;;43.20;23.30;;;5.30;99.90;;;;;;5057431;28;20517;-60
2022/12/01 02:11:07;;;;;;;49.73;25.00;;;5.30;99.90;;;;;;5057980;28;20482;-60
2022/12/01 02:13:42;;;;;;;49.27;25.53;;;5.30;99.90;;;;;;5057899;28;20494;-60
2022/12/01 02:16:16;;;;;;;48.37;25.60;;;5.30;99.90;;;;;;5057065;28;20497;-61
2022/12/01 02:18:57;;;;;;;60.77;28.10;;;5.40;99.90;;;;;;5037605;28;20756;-61
2022/12/01 02:22:01;;;;;;;46.40;26.23;;;5.30;99.90;;;;;;5037920;28;20777;-61
2022/12/01 02:25:03;;;;;;;52.77;29.73;;;5.30;99.90;;;;;;5037488;28;20469;-61
2022/12/01 02:27:46;;;;;;;49.07;25.00;;;5.20;99.90;;;;;;5044902;28;20920;-60
2022/12/01 02:30:19;;;;;;;51.03;24.90;;;5.20;99.90;;;;;;5056056;28;20787;-61
2022/12/01 02:33:02;;;;;;;42.80;23.83;;;5.20;99.90;;;;;;5057120;28;20472;-60
2022/12/01 02:35:36;;;;;;;40.10;23.30;;;5.10;99.90;;;;;;5057691;28;20887;-61
2022/12/01 02:38:15;;;;;;;43.63;24.10;;;5.10;99.90;;;;;;5056697;28;20557;-60
2022/12/01 02:40:49;;;;;;;47.80;26.77;;;5.20;99.90;;;;;;5057248;28;20437;-61
2022/12/01 02:43:28;;;;;;;40.80;25.37;;;5.20;99.90;;;;;;5056470;28;20770;-61
2022/12/01 02:46:00;;;;;;;44.17;25.40;;;5.20;99.90;;;;;;5036949;28;20470;-61
2022/12/01 02:48:31;;;;;;;42.80;24.43;;;5.20;99.90;;;;;;5037394;28;20483;-60
2022/12/01 02:51:04;;;;;;;46.67;24.80;;;5.20;99.90;;;;;;5037452;28;20491;-61
2022/12/01 02:53:32;;;;;;;53.70;27.10;;;5.20;99.90;;;;;;5052124;28;20471;-60
2022/12/01 02:55:59;;;;;;;46.53;26.27;;;5.10;99.90;;;;;;5056844;28;20469;-61
2022/12/01 02:58:29;;;;;;;53.83;28.00;;;5.20;99.90;;;;;;5055965;28;20444;-60
2022/12/01 03:01:22;;;;;;;57.50;29.27;;;5.10;99.90;;;;;;5056190;28;20466;-61
2022/12/01 03:04:20;;;;;;;53.80;29.00;;;5.10;99.90;;;;;;5057011;28;20502;-61
2022/12/01 03:06:56;;;;;;;53.23;29.07;;;5.10;99.90;;;;;;5056072;28;20500;-60
2022/12/01 03:09:36;;;;;;;61.70;28.77;;;5.10;99.90;;;;;;5057119;28;20498;-60
2022/12/01 03:12:14;;;;;;;66.23;31.10;;;5.00;99.90;;;;;;5056218;28;20833;-60
2022/12/01 03:14:53;;;;;;;56.43;29.47;;;5.10;99.90;;;;;;5056040;28;20448;-60
2022/12/01 03:17:27;;;;;;;58.40;30.70;;;5.10;99.90;;;;;;5056951;28;20433;-60
2022/12/01 03:20:02;;;;;;;59.13;31.10;;;5.10;99.90;;;;;;5056547;28;20469;-60
2022/12/01 03:22:37;;;;;;;54.23;29.57;;;5.20;99.90;;;;;;5056078;28;20467;-60
2022/12/01 03:25:07;;;;;;;63.67;30.80;;;5.10;99.90;;;;;;5056690;28;20437;-60
2022/12/01 03:27:41;;;;;;;53.30;32.13;;;5.10;99.90;;;;;;5037342;28;20469;-60
2022/12/01 03:33:38;;;;;;;56.90;31.57;;;5.00;99.90;;;;;;5055773;28;20453;-61
2022/12/01 03:36:14;;;;;;;56.97;32.00;;;5.10;99.90;;;;;;5056096;28;20458;-60
2022/12/01 03:38:47;;;;;;;61.50;32.70;;;5.00;99.90;;;;;;5057024;28;20470;-60
2022/12/01 03:41:35;;;;;;;64.60;34.03;;;5.10;99.90;;;;;;5056866;28;20439;-62
2022/12/01 03:44:08;;;;;;;60.00;32.40;;;5.10;99.90;;;;;;5055907;28;20467;-60
2022/12/01 03:46:46;;;;;;;60.00;31.60;;;5.20;99.90;;;;;;5056432;28;20462;-61
2022/12/01 03:49:15;;;;;;;59.10;30.60;;;5.10;99.90;;;;;;5058542;28;20753;-61
2022/12/01 03:51:50;;;;;;;60.90;32.60;;;5.10;99.90;;;;;;5060562;28;20940;-60
2022/12/01 03:54:23;;;;;;;62.87;34.00;;;5.10;99.90;;;;;;5059721;28;20535;-60
2022/12/01 03:57:00;;;;;;;53.60;31.03;;;5.10;99.90;;;;;;5060440;28;20470;-60
2022/12/01 03:59:29;;;;;;;50.00;27.70;;;5.10;99.90;;;;;;5060364;28;20961;-60
2022/12/01 04:01:59;;;;;;;49.90;26.80;;;5.20;99.90;;;;;;5059952;28;20464;-60
2022/12/01 04:04:33;;;;;;;52.27;27.40;;;5.10;99.90;;;;;;5059400;28;20557;-60
2022/12/01 04:07:03;;;;;;;45.53;26.33;;;5.10;99.90;;;;;;5059474;28;20555;-60
2022/12/01 04:09:33;;;;;;;50.80;29.10;;;5.10;99.90;;;;;;5060329;28;20484;-60
2022/12/01 04:14:47;;;;;;;56.07;29.33;;;5.20;99.90;;;;;;5059228;28;20420;-60
2022/12/01 04:17:17;;;;;;;48.30;28.70;;;5.10;99.90;;;;;;5060209;28;20478;-60
2022/12/01 04:19:45;;;;;;;52.90;28.80;;;5.20;99.90;;;;;;5059087;28;20498;-60
2022/12/01 04:22:13;;;;;;;53.20;29.77;;;5.10;99.90;;;;;;5059884;28;20573;-60
2022/12/01 04:24:41;;;;;;;51.07;29.90;;;5.10;99.90;;;;;;5059312;28;20473;-60
2022/12/01 04:27:12;;;;;;;49.53;27.47;;;5.10;99.90;;;;;;5059991;28;20561;-60
2022/12/01 04:29:50;;;;;;;49.83;27.47;;;5.10;99.90;;;;;;5059768;28;20468;-63
2022/12/01 04:32:19;;;;;;;50.50;26.90;;;5.10;99.90;;;;;;5059718;28;20562;-61
2022/12/01 04:34:49;;;;;;;52.43;28.10;;;5.10;99.90;;;;;;5058427;28;20471;-61
2022/12/01 04:37:21;;;;;;;46.63;28.10;;;5.10;99.90;;;;;;5059114;28;20462;-61
2022/12/01 04:39:50;;;;;;;43.90;26.10;;;5.10;99.90;;;;;;5059936;28;20462;-61
2022/12/01 04:43:04;;;;;;;49.10;27.50;;;5.20;99.90;;;;;;5059754;28;20919;-61
2022/12/01 04:45:31;;;;;;;55.20;29.20;;;5.20;99.90;;;;;;5059280;28;20523;-61
2022/12/01 04:47:59;;;;;;;56.20;29.77;;;5.20;99.90;;;;;;5059631;28;20462;-61
2022/12/01 04:50:27;;;;;;;53.33;29.50;;;5.10;99.90;;;;;;5058673;28;20506;-61
2022/12/01 04:52:58;;;;;;;57.43;32.13;;;5.10;99.90;;;;;;5059709;28;20486;-61
2022/12/01 04:55:25;;;;;;;60.30;31.10;;;5.10;99.90;;;;;;5059151;28;20755;-62
2022/12/01 04:57:56;;;;;;;62.60;32.07;;;5.10;99.90;;;;;;5058919;28;20470;-61
2022/12/01 05:00:25;;;;;;;71.73;32.90;;;5.10;99.90;;;;;;5058593;28;20477;-61
2022/12/01 05:02:54;;;;;;;68.33;30.40;;;5.10;99.90;;;;;;5058963;28;20756;-61
2022/12/01 05:05:25;;;;;;;62.30;29.93;;;5.10;99.90;;;;;;5058127;28;20462;-61
2022/12/01 05:08:02;;;;;;;58.07;30.57;;;5.10;99.90;;;;;;5058237;28;20817;-61
2022/12/01 05:10:29;;;;;;;62.83;30.03;;;5.00;99.90;;;;;;5058897;28;20462;-61
2022/12/01 05:12:57;;;;;;;62.43;31.93;;;5.10;99.90;;;;;;5058586;28;20494;-61
2022/12/01 05:15:24;;;;;;;58.93;31.60;;;5.10;99.90;;;;;;5058622;28;20565;-61
2022/12/01 05:17:53;;;;;;;69.83;33.37;;;5.00;99.90;;;;;;5057790;28;20467;-61
2022/12/01 05:23:09;;;;;;;79.03;34.07;;;5.10;99.90;;;;;;5058037;28;20461;-61
2022/12/01 05:25:42;;;;;;;64.63;33.23;;;5.10;99.90;;;;;;5058593;28;20447;-61
2022/12/01 05:28:12;;;;;;;83.83;34.27;;;5.10;99.90;;;;;;5057529;28;20468;-61
2022/12/01 05:30:43;;;;;;;92.00;35.00;;;5.10;99.90;;;;;;5054553;28;20442;-61
2022/12/01 05:33:13;;;;;;;76.67;32.93;;;5.10;99.90;;;;;;5054935;28;20482;-61
2022/12/01 05:35:41;;;;;;;91.80;36.43;;;5.10;99.90;;;;;;5058617;28;20545;-61
2022/12/01 05:38:12;;;;;;;77.17;36.37;;;5.10;99.90;;;;;;5058568;28;20553;-61
2022/12/01 05:40:43;;;;;;;72.37;36.53;;;5.10;99.90;;;;;;5058608;28;20784;-61
2022/12/01 05:43:16;;;;;;;72.10;33.43;;;5.10;99.90;;;;;;5057291;28;20461;-61
2022/12/01 05:45:48;;;;;;;76.67;32.83;;;5.10;99.90;;;;;;5058303;28;20552;-61
2022/12/01 05:48:19;;;;;;;72.53;32.37;;;5.10;99.90;;;;;;5057991;28;20467;-61
2022/12/01 05:50:46;;;;;;;71.93;34.13;;;4.90;99.90;;;;;;5057309;28;20443;-61
2022/12/01 05:53:25;;;;;;;69.13;34.30;;;5.00;99.90;;;;;;5057484;28;20548;-61
2022/12/01 05:55:54;;;;;;;58.47;31.87;;;4.90;99.90;;;;;;5058397;28;20436;-61
2022/12/01 05:58:21;;;;;;;68.60;33.37;;;4.90;99.90;;;;;;5057345;28;20463;-61
2022/12/01 06:00:49;;;;;;;75.67;33.17;;;4.80;99.90;;;;;;5057079;28;20436;-61
2022/12/01 06:03:18;;;;;;;63.10;31.23;;;4.90;99.90;;;;;;5057722;28;20476;-61
2022/12/01 06:05:46;;;;;;;70.77;33.30;;;4.90;99.90;;;;;;5046191;28;20756;-61
2022/12/01 06:08:15;;;;;;;65.40;32.87;;;5.00;99.90;;;;;;5047969;28;20483;-61
2022/12/01 06:10:43;;;;;;;62.33;31.77;;;5.00;99.90;;;;;;5045218;28;20817;-61
2022/12/01 06:13:10;;;;;;;63.73;31.60;;;5.00;99.90;;;;;;5047782;28;20763;-61
2022/12/01 06:15:38;;;;;;;58.77;29.20;;;5.00;99.90;;;;;;5045206;28;20470;-61
2022/12/01 06:18:06;;;;;;;55.33;30.50;;;4.90;99.90;;;;;;5037628;28;20884;-61
2022/12/01 06:20:34;;;;;;;55.67;30.03;;;4.90;99.90;;;;;;5055419;28;20498;-61
2022/12/01 06:23:03;;;;;;;49.53;28.83;;;4.90;99.90;;;;;;5057290;28;20433;-61
2022/12/01 06:25:31;;;;;;;52.67;28.77;;;5.00;99.90;;;;;;5057140;28;20455;-61
2022/12/01 06:27:59;;;;;;;56.70;30.00;;;5.00;99.90;;;;;;5056963;28;20464;-61
2022/12/01 06:30:29;;;;;;;51.77;28.47;;;5.00;99.90;;;;;;5056505;28;20560;-61
2022/12/01 06:32:59;;;;;;;49.23;29.77;;;5.10;99.90;;;;;;5051604;28;20486;-61
2022/12/01 06:35:29;;;;;;;51.70;28.77;;;5.00;99.90;;;;;;5057353;28;20567;-62
2022/12/01 06:37:56;;;;;;;55.77;29.73;;;4.90;99.90;;;;;;5055734;28;20535;-61
2022/12/01 06:40:25;;;;;;;57.60;30.10;;;4.90;99.90;;;;;;5057018;28;20467;-61
2022/12/01 06:42:58;;;;;;;58.70;29.90;;;5.00;99.90;;;;;;5057257;28;20516;-63
2022/12/01 06:45:26;;;;;;;56.60;30.57;;;4.90;99.90;;;;;;5057339;28;20443;-63
2022/12/01 06:47:54;;;;;;;58.60;30.03;;;5.00;99.90;;;;;;5052371;28;20458;-63
2022/12/01 06:50:21;;;;;;;61.50;31.23;;;5.00;99.90;;;;;;5057079;28;20809;-63
2022/12/01 06:52:49;;;;;;;61.17;33.60;;;5.00;99.90;;;;;;5056140;28;20460;-63
2022/12/01 06:55:16;;;;;;;57.83;31.20;;;4.90;99.90;;;;;;5057089;28;20484;-63
2022/12/01 06:57:46;;;;;;;68.87;32.47;;;4.90;99.90;;;;;;5056376;28;20761;-63
2022/12/01 07:00:19;;;;;;;61.40;32.50;;;4.80;99.90;;;;;;5057392;28;20463;-63
2022/12/01 07:02:47;;;;;;;60.53;33.33;;;4.90;99.90;;;;;;5055986;28;20488;-63
2022/12/01 07:05:16;;;;;;;69.13;33.70;;;4.90;99.90;;;;;;5057035;28;20487;-63
2022/12/01 07:07:44;;;;;;;63.80;34.80;;;4.90;99.90;;;;;;5055795;28;20900;-63
2022/12/01 07:10:14;;;;;;;58.73;32.50;;;4.90;99.90;;;;;;5055824;28;20462;-63
2022/12/01 07:12:42;;;;;;;64.20;33.93;;;4.90;99.90;;;;;;5055705;28;20767;-63
2022/12/01 07:15:19;;;;;;;47.93;25.93;;;4.90;99.90;;;;;;5054569;28;20469;-63
2022/12/01 07:17:47;;;;;;;50.20;26.70;;;4.80;99.90;;;;;;5055519;28;20759;-63
2022/12/01 07:20:18;;;;;;;49.00;26.10;;;4.80;99.90;;;;;;5056478;28;20890;-63
2022/12/01 07:22:48;;;;;;;38.60;21.93;;;4.70;99.90;;;;;;5057665;28;20895;-63
2022/12/01 07:25:15;;;;;;;41.10;22.43;;;4.70;99.90;;;;;;5059961;28;20486;-63
2022/12/01 07:27:44;;;;;;;59.87;24.10;;;4.70;99.90;;;;;;5060599;28;20482;-64
2022/12/01 07:30:15;;;;;;;47.20;23.10;;;4.80;99.90;;;;;;5059460;28;20468;-63
2022/12/01 07:32:44;;;;;;;72.13;25.37;;;4.80;99.90;;;;;;5059631;28;20507;-64
2022/12/01 07:35:14;;;;;;;200.80;48.50;;;4.80;99.90;;;;;;5057539;28;20463;-64
2022/12/01 07:37:41;;;;;;;204.77;48.87;;;4.80;99.90;;;;;;5058126;28;20857;-64
2022/12/01 07:40:11;;;;;;;90.70;32.70;;;4.80;99.90;;;;;;5048281;28;20896;-64
2022/12/01 07:42:41;;;;;;;87.10;31.47;;;4.90;99.90;;;;;;5049201;28;20451;-63
2022/12/01 07:45:11;;;;;;;162.27;39.83;;;4.80;99.90;;;;;;5054690;28;20462;-64
2022/12/01 07:47:39;;;;;;;46.13;26.50;;;4.80;99.90;;;;;;5047616;28;20456;-63
2022/12/01 07:50:08;;;;;;;40.50;24.80;;;4.90;99.90;;;;;;5048224;28;20462;-63
2022/12/01 07:52:36;;;;;;;44.43;24.83;;;4.90;99.90;;;;;;5057465;28;20494;-64
2022/12/01 07:55:03;;;;;;;37.10;23.50;;;4.90;99.90;;;;;;5058207;28;20727;-63
2022/12/01 07:57:30;;;;;;;42.97;24.93;;;5.00;99.90;;;;;;5056970;28;20454;-63
2022/12/01 07:59:57;;;;;;;44.43;26.87;;;4.90;99.90;;;;;;5046586;28;20522;-63
2022/12/01 08:02:25;;;;;;;49.17;25.80;;;4.90;99.90;;;;;;5047132;28;20748;-63
2022/12/01 08:04:54;;;;;;;42.67;25.10;;;4.90;99.90;;;;;;5050805;28;20548;-63
2022/12/01 08:07:23;;;;;;;46.80;24.60;;;5.00;99.90;;;;;;5049434;28;20923;-63
2022/12/01 08:09:51;;;;;;;48.77;24.97;;;5.00;99.90;;;;;;5056524;28;20564;-64
2022/12/01 08:12:18;;;;;;;49.63;26.07;;;4.90;99.90;;;;;;5055757;28;20483;-63
2022/12/01 08:14:45;;;;;;;45.63;25.97;;;4.90;99.90;;;;;;5054421;28;20454;-63
2022/12/01 08:17:12;;;;;;;43.90;26.20;;;4.90;99.90;;;;;;5055309;28;20454;-63
2022/12/01 08:19:40;;;;;;;48.93;28.67;;;4.90;99.90;;;;;;5055739;28;20462;-63
2022/12/01 08:22:09;;;;;;;45.00;26.57;;;4.80;99.90;;;;;;5058381;28;20481;-63
2022/12/01 08:24:37;;;;;;;47.57;25.77;;;4.80;99.90;;;;;;5056895;28;20743;-64
2022/12/01 08:27:06;;;;;;;43.50;24.60;;;4.90;99.90;;;;;;5058464;28;20457;-64
2022/12/01 08:29:35;;;;;;;40.30;23.60;;;4.90;99.90;;;;;;5057607;28;20489;-64
2022/12/01 08:32:02;;;;;;;35.97;23.77;;;4.90;99.90;;;;;;5056967;28;20437;-64
2022/12/01 08:34:30;;;;;;;38.93;23.40;;;5.00;99.90;;;;;;5055670;28;20465;-64
2022/12/01 08:36:57;;;;;;;33.17;21.00;;;5.00;99.90;;;;;;5056959;28;20461;-64
2022/12/01 08:39:24;;;;;;;41.30;22.70;;;4.90;99.90;;;;;;5057657;28;20892;-64
2022/12/01 08:41:53;;;;;;;34.87;21.00;;;4.90;99.90;;;;;;5058616;28;20508;-64
2022/12/01 08:44:20;;;;;;;32.77;20.60;;;5.00;99.90;;;;;;5057498;28;20878;-63
2022/12/01 08:46:49;;;;;;;35.27;21.03;;;5.00;99.90;;;;;;5056876;28;20449;-64
2022/12/01 08:49:17;;;;;;;31.43;19.67;;;4.90;99.90;;;;;;5058412;28;20462;-64
2022/12/01 08:51:47;;;;;;;30.03;19.10;;;4.90;99.90;;;;;;5058169;28;20470;-64
2022/12/01 08:54:18;;;;;;;31.40;20.80;;;5.00;99.90;;;;;;5056532;28;20486;-64
2022/12/01 08:56:46;;;;;;;27.23;18.40;;;4.90;99.90;;;;;;5057445;28;20437;-64
2022/12/01 08:59:14;;;;;;;27.70;18.57;;;5.00;99.90;;;;;;5058627;28;20499;-64
2022/12/01 09:01:56;;;;;;;27.63;19.10;;;5.10;99.90;;;;;;5059402;28;20561;-64
2022/12/01 09:04:26;;;;;;;33.40;19.40;;;5.10;99.90;;;;;;5058928;28;20549;-64
2022/12/01 09:06:54;;;;;;;30.63;18.53;;;5.10;99.90;;;;;;5058894;28;20486;-64
2022/12/01 09:09:25;;;;;;;25.73;17.80;;;5.10;99.90;;;;;;5058278;28;20473;-64
2022/12/01 09:11:52;;;;;;;27.50;18.53;;;5.10;99.90;;;;;;5058943;28;20535;-64
2022/12/01 09:14:23;;;;;;;26.10;18.43;;;5.10;99.90;;;;;;5058351;28;20500;-64
2022/12/01 09:16:51;;;;;;;27.83;18.20;;;5.10;99.90;;;;;;5058475;28;20469;-63
2022/12/01 09:19:19;;;;;;;27.83;17.70;;;5.10;99.90;;;;;;5058351;28;20825;-63
2022/12/01 09:21:49;;;;;;;28.90;18.53;;;5.10;99.90;;;;;;5058561;28;20766;-63
2022/12/01 09:24:17;;;;;;;27.43;17.07;;;5.20;99.90;;;;;;5058381;28;20846;-63
2022/12/01 09:26:44;;;;;;;26.17;18.57;;;5.20;99.90;;;;;;5057953;28;20846;-63
2022/12/01 09:29:13;;;;;;;27.77;17.70;;;5.10;99.90;;;;;;5057697;28;20444;-63
2022/12/01 09:31:44;;;;;;;25.83;17.43;;;5.10;99.90;;;;;;5056804;28;20484;-63
2022/12/01 09:34:21;;;;;;;28.97;18.67;;;5.10;99.90;;;;;;5044242;28;20807;-63
2022/12/01 09:36:48;;;;;;;25.20;17.37;;;5.10;99.90;;;;;;5056792;28;20441;-63
2022/12/01 09:39:17;;;;;;;25.80;17.50;;;5.10;99.90;;;;;;5058457;28;20432;-63
2022/12/01 09:41:47;;;;;;;23.20;15.40;;;5.10;99.90;;;;;;5058632;28;20481;-63
2022/12/01 09:44:43;;;;;;;24.10;14.20;;;5.10;99.90;;;;;;5057179;28;20463;-63
2022/12/01 09:47:20;;;;;;;20.33;13.77;;;5.10;99.90;;;;;;5055616;28;20519;-64
2022/12/01 09:49:58;;;;;;;20.80;13.17;;;5.10;99.90;;;;;;5057513;28;20472;-63
2022/12/01 09:52:27;;;;;;;20.13;13.80;;;5.10;99.90;;;;;;5058504;28;20866;-63
2022/12/01 09:54:57;;;;;;;20.57;13.30;;;5.10;99.90;;;;;;5058158;28;20472;-63
2022/12/01 09:57:30;;;;;;;23.10;14.30;;;5.10;99.90;;;;;;5057254;28;20466;-63
2022/12/01 09:59:59;;;;;;;20.60;13.33;;;5.20;99.90;;;;;;5057586;28;20441;-63
2022/12/01 10:02:34;;;;;;;24.00;15.00;;;5.20;99.90;;;;;;5056210;28;20927;-63
2022/12/01 10:05:07;;;;;;;23.73;15.00;;;5.30;99.90;;;;;;5056277;28;20518;-62
2022/12/01 10:07:40;;;;;;;22.67;15.53;;;5.30;99.90;;;;;;5055736;28;20496;-63
2022/12/01 10:10:12;;;;;;;29.10;17.53;;;5.30;99.90;;;;;;5056540;28;20520;-63
2022/12/01 10:12:43;;;;;;;28.20;18.93;;;5.20;99.90;;;;;;5057459;28;20455;-63
2022/12/01 10:15:27;;;;;;;34.23;20.27;;;5.30;99.90;;;;;;5055932;28;20441;-63
2022/12/01 10:18:12;;;;;;;37.67;23.60;;;5.20;99.90;;;;;;5053863;28;20481;-62
2022/12/01 10:20:45;;;;;;;35.27;21.33;;;5.10;99.90;;;;;;5056183;28;20489;-63
2022/12/01 10:23:37;;;;;;;38.73;25.13;;;5.10;99.90;;;;;;5049002;28;20561;-62
2022/12/01 10:26:13;;;;;;;44.60;25.40;;;5.10;99.90;;;;;;5054696;28;20558;-63
2022/12/01 10:28:59;;;;;;;44.00;26.60;;;5.10;99.90;;;;;;5055538;28;20477;-63
2022/12/01 10:31:34;;;;;;;44.93;26.27;;;5.20;99.90;;;;;;5055400;28;20462;-63
2022/12/01 10:34:06;;;;;;;42.07;25.07;;;5.20;99.90;;;;;;5056994;28;20529;-62
2022/12/01 10:36:38;;;;;;;39.93;24.70;;;5.20;99.90;;;;;;5057322;28;20463;-62
2022/12/01 10:39:07;;;;;;;37.30;23.63;;;5.30;99.90;;;;;;5056120;28;20806;-62
2022/12/01 10:41:37;;;;;;;41.30;25.77;;;5.30;99.90;;;;;;5056658;28;20917;-62
2022/12/01 10:44:07;;;;;;;41.93;25.50;;;5.40;99.90;;;;;;5056849;28;20421;-62
2022/12/01 10:46:41;;;;;;;39.70;24.80;;;5.40;99.90;;;;;;5057712;28;20466;-62
2022/12/01 10:49:14;;;;;;;47.13;25.20;;;5.40;99.90;;;;;;5057622;28;20510;-62
2022/12/01 10:51:51;;;;;;;40.50;26.13;;;5.50;99.90;;;;;;5056344;28;20462;-62
2022/12/01 10:54:20;;;;;;;40.00;25.47;;;5.40;99.90;;;;;;5037360;28;20996;-62
2022/12/01 10:56:52;;;;;;;40.07;26.87;;;5.40;99.90;;;;;;5043648;28;20941;-62
2022/12/01 10:59:33;;;;;;;48.00;29.30;;;5.40;99.90;;;;;;5056508;28;20536;-62
2022/12/01 11:02:02;;;;;;;42.70;26.67;;;5.40;99.90;;;;;;5057107;28;20483;-62
2022/12/01 11:04:43;;;;;;;44.90;28.83;;;5.30;99.90;;;;;;5055913;28;20454;-62
2022/12/01 11:07:20;;;;;;;44.37;27.67;;;5.30;99.90;;;;;;5056658;28;20494;-62
2022/12/01 11:10:07;;;;;;;41.90;26.90;;;5.30;99.90;;;;;;5056889;28;20902;-62
2022/12/01 11:12:35;;;;;;;45.17;28.83;;;5.30;99.90;;;;;;5054722;28;20466;-62
2022/12/01 11:15:02;;;;;;;48.67;28.63;;;5.30;99.90;;;;;;5055114;28;20585;-62
2022/12/01 11:17:33;;;;;;;52.50;30.73;;;5.30;99.90;;;;;;5056278;28;20462;-62
2022/12/01 11:20:25;;;;;;;56.13;31.10;;;5.30;99.90;;;;;;5057091;28;20568;-62
2022/12/01 11:23:12;;;;;;;52.30;31.93;;;5.30;99.90;;;;;;5056550;28;20473;-62
2022/12/01 11:25:42;;;;;;;59.20;32.60;;;5.30;99.90;;;;;;5041324;28;20951;-62
2022/12/01 11:28:20;;;;;;;57.10;33.50;;;5.20;99.90;;;;;;5055048;28;20455;-62
2022/12/01 11:30:56;;;;;;;51.50;31.13;;;5.30;99.90;;;;;;5055631;28;20436;-62
2022/12/01 11:33:24;;;;;;;61.20;34.83;;;5.30;99.90;;;;;;5056187;28;20492;-62
2022/12/01 11:35:53;;;;;;;56.73;35.93;;;5.20;99.90;;;;;;5055400;28;20440;-62
2022/12/01 11:38:22;;;;;;;53.00;33.50;;;5.20;99.90;;;;;;5054939;28;20532;-62
2022/12/01 11:40:52;;;;;;;55.00;33.63;;;5.30;99.90;;;;;;5055726;28;20476;-61
2022/12/01 11:43:27;;;;;;;59.43;33.50;;;5.30;99.90;;;;;;5056147;28;20453;-61
2022/12/01 11:45:58;;;;;;;57.00;33.30;;;5.60;99.90;;;;;;5056029;28;20748;-61
2022/12/01 11:48:27;;;;;;;60.60;32.70;;;5.80;99.90;;;;;;5056400;28;20437;-60
2022/12/01 11:51:06;;;;;;;53.37;33.10;;;5.80;99.90;;;;;;5035240;28;20459;-61
2022/12/01 11:53:35;;;;;;;52.50;31.40;;;6.00;99.90;;;;;;5035598;28;20526;-60
2022/12/01 11:56:18;;;;;;;49.93;31.50;;;6.10;99.90;;;;;;5049428;28;20493;-60
2022/12/01 11:58:51;;;;;;;55.90;33.20;;;6.30;99.90;;;;;;5056489;28;20462;-60
2022/12/01 12:01:36;;;;;;;52.27;32.77;;;6.30;99.90;;;;;;5056313;28;20484;-60
2022/12/01 12:04:23;;;;;;;52.87;31.97;;;6.10;99.90;;;;;;5056084;28;20460;-59
2022/12/01 12:07:06;;;;;;;54.47;33.47;;;5.90;99.90;;;;;;5045596;28;20592;-60
2022/12/01 12:09:47;;;;;;;56.90;34.03;;;6.00;99.90;;;;;;5039746;28;20469;-60
2022/12/01 12:12:29;;;;;;;56.03;33.03;;;6.00;99.90;;;;;;5059310;28;20436;-60
2022/12/01 12:15:05;;;;;;;54.70;31.20;;;6.00;99.90;;;;;;5059738;28;20927;-60
2022/12/01 12:18:02;;;;;;;56.83;33.67;;;5.90;99.90;;;;;;5060297;28;20440;-60
2022/12/01 12:20:45;;;;;;;50.20;31.67;;;6.00;99.90;;;;;;5059014;28;20462;-60
2022/12/01 12:23:29;;;;;;;57.43;31.40;;;6.00;99.90;;;;;;5053894;28;20560;-60
2022/12/01 12:26:06;;;;;;;50.67;30.87;;;6.10;99.90;;;;;;5057753;28;20887;-60
2022/12/01 12:28:59;;;;;;;46.20;31.70;;;6.00;99.90;;;;;;5059842;28;20480;-60
2022/12/01 12:31:34;;;;;;;54.53;33.10;;;6.10;99.90;;;;;;5057570;28;20498;-61
2022/12/01 12:34:31;;;;;;;52.13;33.17;;;6.00;99.90;;;;;;5058334;28;20490;-60
2022/12/01 12:37:16;;;;;;;56.03;34.07;;;5.90;99.90;;;;;;5056869;28;20443;-61
2022/12/01 12:40:34;;;;;;;56.57;33.57;;;5.70;99.90;;;;;;5057534;28;20470;-61
2022/12/01 12:43:21;;;;;;;51.70;32.90;;;5.70;99.90;;;;;;4977672;28;20524;-61
2022/12/01 12:45:59;;;;;;;51.80;31.67;;;5.80;99.90;;;;;;5034929;28;20466;-61
2022/12/01 12:48:47;;;;;;;49.97;31.70;;;5.80;99.90;;;;;;5038847;28;20465;-61
2022/12/01 12:51:22;;;;;;;49.97;31.70;;;5.80;99.90;;;;;;5038763;28;20927;-61
2022/12/01 12:53:56;;;;;;;50.57;32.40;;;5.70;99.90;;;;;;5054792;28;20534;-61
2022/12/01 12:56:29;;;;;;;53.00;33.17;;;5.70;99.90;;;;;;5057905;28;20472;-61
2022/12/01 12:59:01;;;;;;;58.20;34.03;;;5.80;99.90;;;;;;5058832;28;20894;-61
2022/12/01 13:01:34;;;;;;;55.40;32.93;;;5.70;99.90;;;;;;5059260;28;20462;-61
2022/12/01 13:04:07;;;;;;;61.57;37.47;;;5.60;99.90;;;;;;5058781;28;20472;-61
2022/12/01 13:06:42;;;;;;;53.20;33.87;;;5.60;99.90;;;;;;5058632;28;20547;-61
2022/12/01 13:09:14;;;;;;;59.70;34.50;;;5.60;99.90;;;;;;5058378;28;20547;-61
2022/12/01 13:11:49;;;;;;;55.47;34.50;;;5.70;99.90;;;;;;5059384;28;20462;-61
2022/12/01 13:14:29;;;;;;;58.20;35.47;;;5.50;99.90;;;;;;5058502;28;20560;-61